sensor_id;sensor_type;location;lat;lon;timestamp;temperature;humidity
1704;DHT22;849;48.780;9.216;2022-11-15T00:00:33;10.70;99.90
1704;DHT22;849;48.780;9.216;2022-11-15T00:02:59;10.70;99.90
1704;DHT22;849;48.780;9.216;2022-11-15T00:05:26;10.80;99.90
1704;DHT22;849;48.780;9.216;2022-11-15T00:07:54;10.80;99.90
1704;DHT22;849;48.780;9.216;2022-11-15T00:10:21;10.60;99.90
1704;DHT22;849;48.780;9.216;2022-11-15T00:12:47;10.70;99.90
1704;DHT22;849;48.780;9.216;2022-11-15T00:15:13;10.80;99.90
1704;DHT22;849;48.780;9.216;2022-11-15T00:17:38;10.50;99.90
1704;DHT22;849;48.780;9.216;2022-11-15T00:20:05;10.60;99.90
1704;DHT22;849;48.780;9.216;2022-11-15T00:22:33;10.60;99.90
1704;DHT22;849;48.780;9.216;2022-11-15T00:24:59;10.90;99.90
1704;DHT22;849;48.780;9.216;2022-11-15T00:27:26;10.90;99.90
1704;DHT22;849;48.780;9.216;2022-11-15T00:29:52;11.00;99.90
1704;DHT22;849;48.780;9.216;2022-11-15T00:32:18;10.90;99.90
1704;DHT22;849;48.780;9.216;2022-11-15T00:34:44;10.90;99.90
1704;DHT22;849;48.780;9.216;2022-11-15T00:37:09;11.00;99.90
1704;DHT22;849;48.780;9.216;2022-11-15T00:39:35;11.00;99.90
1704;DHT22;849;48.780;9.216;2022-11-15T00:42:01;11.10;99.90
1704;DHT22;849;48.780;9.216;2022-11-15T00:44:26;11.10;99.90
1704;DHT22;849;48.780;9.216;2022-11-15T00:46:52;11.00;99.90
1704;DHT22;849;48.780;9.216;2022-11-15T00:49:18;11.00;99.90
1704;DHT22;849;48.780;9.216;2022-11-15T00:51:43;10.90;99.90
1704;DHT22;849;48.780;9.216;2022-11-15T00:54:09;10.90;99.90
1704;DHT22;849;48.780;9.216;2022-11-15T00:56:34;10.90;99.90
1704;DHT22;849;48.780;9.216;2022-11-15T00:59:00;11.00;99.90
1704;DHT22;849;48.780;9.216;2022-11-15T01:01:26;11.20;99.90
1704;DHT22;849;48.780;9.216;2022-11-15T01:03:52;11.20;99.90
1704;DHT22;849;48.780;9.216;2022-11-15T01:06:17;11.10;99.90
1704;DHT22;849;48.780;9.216;2022-11-15T01:08:43;11.00;99.90
1704;DHT22;849;48.780;9.216;2022-11-15T01:11:11;10.90;99.90
1704;DHT22;849;48.780;9.216;2022-11-15T01:13:38;11.00;99.90
1704;DHT22;849;48.780;9.216;2022-11-15T01:16:17;10.80;99.90
1704;DHT22;849;48.780;9.216;2022-11-15T01:18:44;10.90;99.90
1704;DHT22;849;48.780;9.216;2022-11-15T01:21:16;10.80;99.90
1704;DHT22;849;48.780;9.216;2022-11-15T01:23:41;10.80;99.90
1704;DHT22;849;48.780;9.216;2022-11-15T01:26:10;10.70;99.90
1704;DHT22;849;48.780;9.216;2022-11-15T01:28:38;10.50;99.90
1704;DHT22;849;48.780;9.216;2022-11-15T01:31:08;10.60;99.90
1704;DHT22;849;48.780;9.216;2022-11-15T01:33:35;10.30;99.90
1704;DHT22;849;48.780;9.216;2022-11-15T01:36:14;10.40;99.90
1704;DHT22;849;48.780;9.216;2022-11-15T01:38:40;10.40;99.90
1704;DHT22;849;48.780;9.216;2022-11-15T01:41:06;10.50;99.90
1704;DHT22;849;48.780;9.216;2022-11-15T01:43:34;10.50;99.90
1704;DHT22;849;48.780;9.216;2022-11-15T01:48:49;10.50;99.90
1704;DHT22;849;48.780;9.216;2022-11-15T01:51:19;10.40;99.90
1704;DHT22;849;48.780;9.216;2022-11-15T01:53:48;10.40;99.90
1704;DHT22;849;48.780;9.216;2022-11-15T01:56:19;10.30;99.90
1704;DHT22;849;48.780;9.216;2022-11-15T01:58:46;10.30;99.90
1704;DHT22;849;48.780;9.216;2022-11-15T02:01:13;10.30;99.90
1704;DHT22;849;48.780;9.216;2022-11-15T02:03:51;10.30;99.90
1704;DHT22;849;48.780;9.216;2022-11-15T02:06:18;10.30;99.90
1704;DHT22;849;48.780;9.216;2022-11-15T02:08:44;10.20;99.90
1704;DHT22;849;48.780;9.216;2022-11-15T02:11:10;10.20;99.90
1704;DHT22;849;48.780;9.216;2022-11-15T02:13:36;10.20;99.90
1704;DHT22;849;48.780;9.216;2022-11-15T02:16:26;10.10;99.90
1704;DHT22;849;48.780;9.216;2022-11-15T02:19:04;9.90;99.90
1704;DHT22;849;48.780;9.216;2022-11-15T02:33:17;10.10;99.90
1704;DHT22;849;48.780;9.216;2022-11-15T02:38:43;10.30;99.90
1704;DHT22;849;48.780;9.216;2022-11-15T02:44:40;10.40;99.90
1704;DHT22;849;48.780;9.216;2022-11-15T02:47:12;10.40;99.90
1704;DHT22;849;48.780;9.216;2022-11-15T02:49:46;10.40;99.90
1704;DHT22;849;48.780;9.216;2022-11-15T02:52:16;10.40;99.90
1704;DHT22;849;48.780;9.216;2022-11-15T02:54:42;10.40;99.90
1704;DHT22;849;48.780;9.216;2022-11-15T02:57:14;10.40;99.90
1704;DHT22;849;48.780;9.216;2022-11-15T02:59:52;10.40;99.90
1704;DHT22;849;48.780;9.216;2022-11-15T03:13:56;10.20;99.90
1704;DHT22;849;48.780;9.216;2022-11-15T03:16:43;10.10;99.90
1704;DHT22;849;48.780;9.216;2022-11-15T03:19:26;10.20;99.90
1704;DHT22;849;48.780;9.216;2022-11-15T03:21:56;10.10;99.90
1704;DHT22;849;48.780;9.216;2022-11-15T03:24:23;10.00;99.90
1704;DHT22;849;48.780;9.216;2022-11-15T03:26:51;10.00;99.90
1704;DHT22;849;48.780;9.216;2022-11-15T03:29:31;10.00;99.90
1704;DHT22;849;48.780;9.216;2022-11-15T03:32:02;10.10;99.90
1704;DHT22;849;48.780;9.216;2022-11-15T03:34:39;10.20;99.90
1704;DHT22;849;48.780;9.216;2022-11-15T03:37:07;10.10;99.90
1704;DHT22;849;48.780;9.216;2022-11-15T03:39:34;10.20;99.90
1704;DHT22;849;48.780;9.216;2022-11-15T03:42:17;10.20;99.90
1704;DHT22;849;48.780;9.216;2022-11-15T03:44:56;10.20;99.90
1704;DHT22;849;48.780;9.216;2022-11-15T03:47:28;10.00;99.90
1704;DHT22;849;48.780;9.216;2022-11-15T03:50:08;10.10;99.90
1704;DHT22;849;48.780;9.216;2022-11-15T03:52:35;10.00;99.90
1704;DHT22;849;48.780;9.216;2022-11-15T03:55:03;9.70;99.90
1704;DHT22;849;48.780;9.216;2022-11-15T03:57:29;9.90;99.90
1704;DHT22;849;48.780;9.216;2022-11-15T03:59:55;10.00;99.90
1704;DHT22;849;48.780;9.216;2022-11-15T04:02:20;9.90;99.90
1704;DHT22;849;48.780;9.216;2022-11-15T04:04:46;10.10;99.90
1704;DHT22;849;48.780;9.216;2022-11-15T04:07:12;10.10;99.90
1704;DHT22;849;48.780;9.216;2022-11-15T04:09:38;10.30;99.90
1704;DHT22;849;48.780;9.216;2022-11-15T04:12:23;10.10;99.90
1704;DHT22;849;48.780;9.216;2022-11-15T04:15:03;10.30;99.90
1704;DHT22;849;48.780;9.216;2022-11-15T04:17:36;10.40;99.90
1704;DHT22;849;48.780;9.216;2022-11-15T04:20:16;10.30;99.90
1704;DHT22;849;48.780;9.216;2022-11-15T04:23:02;10.20;99.90
1704;DHT22;849;48.780;9.216;2022-11-15T04:25:50;10.00;99.90
1704;DHT22;849;48.780;9.216;2022-11-15T04:28:16;10.00;99.90
1704;DHT22;849;48.780;9.216;2022-11-15T04:30:42;10.10;99.90
1704;DHT22;849;48.780;9.216;2022-11-15T04:33:08;10.10;99.90
1704;DHT22;849;48.780;9.216;2022-11-15T04:35:34;10.10;99.90
1704;DHT22;849;48.780;9.216;2022-11-15T04:38:00;10.20;99.90
1704;DHT22;849;48.780;9.216;2022-11-15T04:40:26;10.10;99.90
1704;DHT22;849;48.780;9.216;2022-11-15T04:42:52;10.20;99.90
1704;DHT22;849;48.780;9.216;2022-11-15T04:45:18;10.20;99.90
1704;DHT22;849;48.780;9.216;2022-11-15T04:47:45;10.30;99.90
1704;DHT22;849;48.780;9.216;2022-11-15T04:50:12;10.20;99.90
1704;DHT22;849;48.780;9.216;2022-11-15T04:52:40;10.10;99.90
1704;DHT22;849;48.780;9.216;2022-11-15T04:55:06;10.00;99.90
1704;DHT22;849;48.780;9.216;2022-11-15T04:57:32;9.90;99.90
1704;DHT22;849;48.780;9.216;2022-11-15T04:59:58;10.00;99.90
1704;DHT22;849;48.780;9.216;2022-11-15T05:02:23;10.00;99.90
1704;DHT22;849;48.780;9.216;2022-11-15T05:04:49;10.10;99.90
1704;DHT22;849;48.780;9.216;2022-11-15T05:07:14;10.10;99.90
1704;DHT22;849;48.780;9.216;2022-11-15T05:09:40;10.00;99.90
1704;DHT22;849;48.780;9.216;2022-11-15T05:12:06;9.90;99.90
1704;DHT22;849;48.780;9.216;2022-11-15T05:14:33;9.80;99.90
1704;DHT22;849;48.780;9.216;2022-11-15T05:16:59;9.60;99.90
1704;DHT22;849;48.780;9.216;2022-11-15T05:19:24;9.40;99.90
1704;DHT22;849;48.780;9.216;2022-11-15T05:21:50;9.40;99.90
1704;DHT22;849;48.780;9.216;2022-11-15T05:24:16;9.40;99.90
1704;DHT22;849;48.780;9.216;2022-11-15T05:26:41;9.50;99.90
1704;DHT22;849;48.780;9.216;2022-11-15T05:29:09;9.60;99.90
1704;DHT22;849;48.780;9.216;2022-11-15T05:31:39;9.70;99.90
1704;DHT22;849;48.780;9.216;2022-11-15T05:34:06;9.90;99.90
1704;DHT22;849;48.780;9.216;2022-11-15T05:36:41;9.90;99.90
1704;DHT22;849;48.780;9.216;2022-11-15T05:39:08;9.80;99.90
1704;DHT22;849;48.780;9.216;2022-11-15T05:41:39;9.70;99.90
1704;DHT22;849;48.780;9.216;2022-11-15T05:44:07;9.70;99.90
1704;DHT22;849;48.780;9.216;2022-11-15T05:46:35;9.80;99.90
1704;DHT22;849;48.780;9.216;2022-11-15T05:49:03;9.80;99.90
1704;DHT22;849;48.780;9.216;2022-11-15T05:51:30;9.90;99.90
1704;DHT22;849;48.780;9.216;2022-11-15T05:53:58;9.90;99.90
1704;DHT22;849;48.780;9.216;2022-11-15T05:56:25;9.80;99.90
1704;DHT22;849;48.780;9.216;2022-11-15T05:58:53;10.00;99.90
1704;DHT22;849;48.780;9.216;2022-11-15T06:01:20;9.70;99.90
1704;DHT22;849;48.780;9.216;2022-11-15T06:03:49;9.60;99.90
1704;DHT22;849;48.780;9.216;2022-11-15T06:06:15;9.70;99.90
1704;DHT22;849;48.780;9.216;2022-11-15T06:08:41;9.80;99.90
1704;DHT22;849;48.780;9.216;2022-11-15T06:11:07;9.80;99.90
1704;DHT22;849;48.780;9.216;2022-11-15T06:13:35;9.70;99.90
1704;DHT22;849;48.780;9.216;2022-11-15T06:16:01;9.70;99.90
1704;DHT22;849;48.780;9.216;2022-11-15T06:18:26;9.70;99.90
1704;DHT22;849;48.780;9.216;2022-11-15T06:20:52;9.40;99.90
1704;DHT22;849;48.780;9.216;2022-11-15T06:23:18;9.50;99.90
1704;DHT22;849;48.780;9.216;2022-11-15T06:25:44;9.50;99.90
1704;DHT22;849;48.780;9.216;2022-11-15T06:28:09;9.50;99.90
1704;DHT22;849;48.780;9.216;2022-11-15T06:30:35;9.60;99.90
1704;DHT22;849;48.780;9.216;2022-11-15T06:33:02;9.70;99.90
1704;DHT22;849;48.780;9.216;2022-11-15T06:35:29;9.80;99.90
1704;DHT22;849;48.780;9.216;2022-11-15T06:37:55;9.80;99.90
1704;DHT22;849;48.780;9.216;2022-11-15T06:40:20;9.80;99.90
1704;DHT22;849;48.780;9.216;2022-11-15T06:42:46;9.90;99.90
1704;DHT22;849;48.780;9.216;2022-11-15T06:45:12;10.00;99.90
1704;DHT22;849;48.780;9.216;2022-11-15T06:47:45;10.10;99.90
1704;DHT22;849;48.780;9.216;2022-11-15T06:50:12;10.00;99.90
1704;DHT22;849;48.780;9.216;2022-11-15T06:52:37;9.90;99.90
1704;DHT22;849;48.780;9.216;2022-11-15T06:55:15;9.80;99.90
1704;DHT22;849;48.780;9.216;2022-11-15T06:57:47;9.70;99.90
1704;DHT22;849;48.780;9.216;2022-11-15T07:00:14;9.70;99.90
1704;DHT22;849;48.780;9.216;2022-11-15T07:02:39;9.70;99.90
1704;DHT22;849;48.780;9.216;2022-11-15T07:05:05;9.90;99.90
1704;DHT22;849;48.780;9.216;2022-11-15T07:07:31;9.80;99.90
1704;DHT22;849;48.780;9.216;2022-11-15T07:09:57;9.90;99.90
1704;DHT22;849;48.780;9.216;2022-11-15T07:12:22;9.60;99.90
1704;DHT22;849;48.780;9.216;2022-11-15T07:14:48;9.60;99.90
1704;DHT22;849;48.780;9.216;2022-11-15T07:17:13;9.70;99.90
1704;DHT22;849;48.780;9.216;2022-11-15T07:19:39;9.80;99.90
1704;DHT22;849;48.780;9.216;2022-11-15T07:22:05;10.10;99.90
1704;DHT22;849;48.780;9.216;2022-11-15T07:24:30;10.30;99.90
1704;DHT22;849;48.780;9.216;2022-11-15T07:26:56;10.40;99.90
1704;DHT22;849;48.780;9.216;2022-11-15T07:29:22;10.40;99.90
1704;DHT22;849;48.780;9.216;2022-11-15T07:31:49;10.70;99.90
1704;DHT22;849;48.780;9.216;2022-11-15T07:34:16;10.60;99.90
1704;DHT22;849;48.780;9.216;2022-11-15T07:36:41;10.60;99.90
1704;DHT22;849;48.780;9.216;2022-11-15T07:39:07;10.70;99.90
1704;DHT22;849;48.780;9.216;2022-11-15T07:41:32;10.60;99.90
1704;DHT22;849;48.780;9.216;2022-11-15T07:43:58;10.70;99.90
1704;DHT22;849;48.780;9.216;2022-11-15T07:46:24;10.70;99.90
1704;DHT22;849;48.780;9.216;2022-11-15T07:48:50;10.90;99.90
1704;DHT22;849;48.780;9.216;2022-11-15T07:51:16;11.10;99.90
1704;DHT22;849;48.780;9.216;2022-11-15T07:53:42;11.00;99.90
1704;DHT22;849;48.780;9.216;2022-11-15T07:56:09;11.10;99.90
1704;DHT22;849;48.780;9.216;2022-11-15T07:58:35;11.10;99.90
1704;DHT22;849;48.780;9.216;2022-11-15T08:01:04;11.00;99.90
1704;DHT22;849;48.780;9.216;2022-11-15T08:03:31;10.90;99.90
1704;DHT22;849;48.780;9.216;2022-11-15T08:05:57;10.80;99.90
1704;DHT22;849;48.780;9.216;2022-11-15T08:08:23;10.80;99.90
1704;DHT22;849;48.780;9.216;2022-11-15T08:10:48;11.10;99.90
1704;DHT22;849;48.780;9.216;2022-11-15T08:13:14;11.10;99.90
1704;DHT22;849;48.780;9.216;2022-11-15T08:15:40;10.90;99.90
1704;DHT22;849;48.780;9.216;2022-11-15T08:18:12;11.00;99.90
1704;DHT22;849;48.780;9.216;2022-11-15T08:20:38;11.20;99.90
1704;DHT22;849;48.780;9.216;2022-11-15T08:23:05;11.40;99.90
1704;DHT22;849;48.780;9.216;2022-11-15T08:25:33;11.40;99.90
1704;DHT22;849;48.780;9.216;2022-11-15T08:28:01;11.40;99.90
1704;DHT22;849;48.780;9.216;2022-11-15T08:30:27;11.50;99.90
1704;DHT22;849;48.780;9.216;2022-11-15T08:32:54;11.50;99.90
1704;DHT22;849;48.780;9.216;2022-11-15T08:35:21;11.60;99.90
1704;DHT22;849;48.780;9.216;2022-11-15T08:37:47;11.70;99.90
1704;DHT22;849;48.780;9.216;2022-11-15T08:40:13;11.70;99.90
1704;DHT22;849;48.780;9.216;2022-11-15T08:42:39;11.80;99.90
1704;DHT22;849;48.780;9.216;2022-11-15T08:45:05;11.70;99.90
1704;DHT22;849;48.780;9.216;2022-11-15T08:47:31;11.70;99.90
1704;DHT22;849;48.780;9.216;2022-11-15T08:49:57;11.70;99.90
1704;DHT22;849;48.780;9.216;2022-11-15T08:52:23;11.70;99.90
1704;DHT22;849;48.780;9.216;2022-11-15T08:54:48;11.70;99.90
1704;DHT22;849;48.780;9.216;2022-11-15T08:57:14;11.70;99.90
1704;DHT22;849;48.780;9.216;2022-11-15T08:59:40;11.80;99.90
1704;DHT22;849;48.780;9.216;2022-11-15T09:02:06;11.90;99.90
1704;DHT22;849;48.780;9.216;2022-11-15T09:04:32;11.90;99.90
1704;DHT22;849;48.780;9.216;2022-11-15T09:06:58;12.00;99.90
1704;DHT22;849;48.780;9.216;2022-11-15T09:09:23;12.10;99.90
1704;DHT22;849;48.780;9.216;2022-11-15T09:11:49;12.30;99.90
1704;DHT22;849;48.780;9.216;2022-11-15T09:14:16;12.40;99.90
1704;DHT22;849;48.780;9.216;2022-11-15T09:16:41;12.40;99.90
1704;DHT22;849;48.780;9.216;2022-11-15T09:19:07;12.60;99.90
1704;DHT22;849;48.780;9.216;2022-11-15T09:21:33;12.60;99.90
1704;DHT22;849;48.780;9.216;2022-11-15T09:23:59;12.60;99.90
1704;DHT22;849;48.780;9.216;2022-11-15T09:26:25;12.50;99.90
1704;DHT22;849;48.780;9.216;2022-11-15T09:28:50;12.50;99.90
1704;DHT22;849;48.780;9.216;2022-11-15T09:31:16;12.70;99.90
1704;DHT22;849;48.780;9.216;2022-11-15T09:33:45;12.90;99.90
1704;DHT22;849;48.780;9.216;2022-11-15T09:36:11;13.10;99.90
1704;DHT22;849;48.780;9.216;2022-11-15T09:38:38;13.00;99.90
1704;DHT22;849;48.780;9.216;2022-11-15T09:49:22;13.20;99.90
1704;DHT22;849;48.780;9.216;2022-11-15T09:51:49;13.40;99.90
1704;DHT22;849;48.780;9.216;2022-11-15T09:54:23;13.30;99.90
1704;DHT22;849;48.780;9.216;2022-11-15T09:56:56;13.40;99.90
1704;DHT22;849;48.780;9.216;2022-11-15T09:59:51;13.40;99.90
1704;DHT22;849;48.780;9.216;2022-11-15T10:05:00;13.50;99.90
1704;DHT22;849;48.780;9.216;2022-11-15T10:10:29;13.70;99.90
1704;DHT22;849;48.780;9.216;2022-11-15T10:12:57;13.60;99.90
1704;DHT22;849;48.780;9.216;2022-11-15T10:15:24;13.80;99.90
1704;DHT22;849;48.780;9.216;2022-11-15T10:20:55;13.80;99.90
1704;DHT22;849;48.780;9.216;2022-11-15T10:23:23;13.90;99.90
1704;DHT22;849;48.780;9.216;2022-11-15T10:25:52;14.00;99.90
1704;DHT22;849;48.780;9.216;2022-11-15T10:28:27;13.90;99.90
1704;DHT22;849;48.780;9.216;2022-11-15T10:30:58;13.90;99.90
1704;DHT22;849;48.780;9.216;2022-11-15T10:33:33;14.10;99.90
1704;DHT22;849;48.780;9.216;2022-11-15T10:41:17;14.10;99.90
1704;DHT22;849;48.780;9.216;2022-11-15T10:43:45;14.00;99.90
1704;DHT22;849;48.780;9.216;2022-11-15T10:46:21;13.80;99.90
1704;DHT22;849;48.780;9.216;2022-11-15T10:48:47;13.80;99.90
1704;DHT22;849;48.780;9.216;2022-11-15T10:51:24;13.80;99.90
1704;DHT22;849;48.780;9.216;2022-11-15T10:53:55;13.90;99.90
1704;DHT22;849;48.780;9.216;2022-11-15T10:56:23;13.90;99.90
1704;DHT22;849;48.780;9.216;2022-11-15T10:58:55;13.90;99.90
1704;DHT22;849;48.780;9.216;2022-11-15T11:01:26;13.90;99.90
1704;DHT22;849;48.780;9.216;2022-11-15T11:04:04;13.90;99.90
1704;DHT22;849;48.780;9.216;2022-11-15T11:06:56;14.10;99.90
1704;DHT22;849;48.780;9.216;2022-11-15T11:09:38;14.20;99.90
1704;DHT22;849;48.780;9.216;2022-11-15T11:12:06;14.20;99.90
1704;DHT22;849;48.780;9.216;2022-11-15T11:14:37;14.20;99.90
1704;DHT22;849;48.780;9.216;2022-11-15T11:17:32;14.10;99.90
1704;DHT22;849;48.780;9.216;2022-11-15T11:20:17;14.10;99.90
1704;DHT22;849;48.780;9.216;2022-11-15T11:25:41;14.50;99.90
1704;DHT22;849;48.780;9.216;2022-11-15T11:31:08;14.50;99.90
1704;DHT22;849;48.780;9.216;2022-11-15T11:33:44;14.50;99.90
1704;DHT22;849;48.780;9.216;2022-11-15T11:39:33;14.60;99.90
1704;DHT22;849;48.780;9.216;2022-11-15T11:50:29;14.70;99.90
1704;DHT22;849;48.780;9.216;2022-11-15T11:53:03;14.70;99.90
1704;DHT22;849;48.780;9.216;2022-11-15T11:55:37;14.70;99.90
1704;DHT22;849;48.780;9.216;2022-11-15T12:01:11;15.20;99.90
1704;DHT22;849;48.780;9.216;2022-11-15T12:03:55;15.40;99.90
1704;DHT22;849;48.780;9.216;2022-11-15T12:06:46;15.20;99.90
1704;DHT22;849;48.780;9.216;2022-11-15T12:15:02;15.60;99.90
1704;DHT22;849;48.780;9.216;2022-11-15T12:17:30;15.50;99.90
1704;DHT22;849;48.780;9.216;2022-11-15T12:20:06;15.30;99.90
1704;DHT22;849;48.780;9.216;2022-11-15T12:23:03;15.20;99.90
1704;DHT22;849;48.780;9.216;2022-11-15T12:30:51;15.60;99.90
1704;DHT22;849;48.780;9.216;2022-11-15T12:33:40;15.40;99.90
1704;DHT22;849;48.780;9.216;2022-11-15T12:36:11;15.30;99.90
1704;DHT22;849;48.780;9.216;2022-11-15T12:38:54;15.50;99.90
1704;DHT22;849;48.780;9.216;2022-11-15T12:41:22;15.40;99.90
1704;DHT22;849;48.780;9.216;2022-11-15T12:43:49;15.30;99.90
1704;DHT22;849;48.780;9.216;2022-11-15T13:13:07;15.30;99.90
1704;DHT22;849;48.780;9.216;2022-11-15T13:15:53;15.40;99.90
1704;DHT22;849;48.780;9.216;2022-11-15T13:20:59;15.30;99.90
1704;DHT22;849;48.780;9.216;2022-11-15T13:23:25;15.30;99.90
1704;DHT22;849;48.780;9.216;2022-11-15T13:28:52;15.00;99.90
1704;DHT22;849;48.780;9.216;2022-11-15T13:31:37;14.70;99.90
1704;DHT22;849;48.780;9.216;2022-11-15T13:34:29;14.80;99.90
1704;DHT22;849;48.780;9.216;2022-11-15T13:36:56;14.70;99.90
1704;DHT22;849;48.780;9.216;2022-11-15T13:39:29;14.50;99.90
1704;DHT22;849;48.780;9.216;2022-11-15T13:41:56;14.90;99.90
1704;DHT22;849;48.780;9.216;2022-11-15T13:44:24;15.10;99.90
1704;DHT22;849;48.780;9.216;2022-11-15T13:47:01;15.20;99.90
1704;DHT22;849;48.780;9.216;2022-11-15T13:49:32;15.10;99.90
1704;DHT22;849;48.780;9.216;2022-11-15T13:51:59;15.30;99.90
1704;DHT22;849;48.780;9.216;2022-11-15T13:54:28;15.30;99.90
1704;DHT22;849;48.780;9.216;2022-11-15T13:57:40;15.20;99.90
1704;DHT22;849;48.780;9.216;2022-11-15T13:59:53;15.20;99.90
1704;DHT22;849;48.780;9.216;2022-11-15T14:02:27;15.20;99.90
1704;DHT22;849;48.780;9.216;2022-11-15T14:05:00;15.30;99.90
1704;DHT22;849;48.780;9.216;2022-11-15T14:07:28;15.30;99.90
1704;DHT22;849;48.780;9.216;2022-11-15T14:09:54;15.30;99.90
1704;DHT22;849;48.780;9.216;2022-11-15T14:12:32;15.30;99.90
1704;DHT22;849;48.780;9.216;2022-11-15T14:15:28;15.20;99.90
1704;DHT22;849;48.780;9.216;2022-11-15T14:17:55;15.20;99.90
1704;DHT22;849;48.780;9.216;2022-11-15T14:23:01;15.10;99.90
1704;DHT22;849;48.780;9.216;2022-11-15T14:25:32;15.10;99.90
1704;DHT22;849;48.780;9.216;2022-11-15T14:28:11;15.10;99.90
1704;DHT22;849;48.780;9.216;2022-11-15T14:30:39;15.00;99.90
1704;DHT22;849;48.780;9.216;2022-11-15T14:33:34;15.10;99.90
1704;DHT22;849;48.780;9.216;2022-11-15T14:36:20;14.90;99.90
1704;DHT22;849;48.780;9.216;2022-11-15T14:38:47;14.80;99.90
1704;DHT22;849;48.780;9.216;2022-11-15T14:41:24;14.70;99.90
1704;DHT22;849;48.780;9.216;2022-11-15T14:43:51;14.90;99.90
1704;DHT22;849;48.780;9.216;2022-11-15T14:46:16;14.90;99.90
1704;DHT22;849;48.780;9.216;2022-11-15T14:48:42;14.80;99.90
1704;DHT22;849;48.780;9.216;2022-11-15T14:51:13;14.80;99.90
1704;DHT22;849;48.780;9.216;2022-11-15T14:53:40;14.60;99.90
1704;DHT22;849;48.780;9.216;2022-11-15T14:56:05;14.60;99.90
1704;DHT22;849;48.780;9.216;2022-11-15T14:58:31;14.60;99.90
1704;DHT22;849;48.780;9.216;2022-11-15T15:00:56;14.50;99.90
1704;DHT22;849;48.780;9.216;2022-11-15T15:03:22;14.30;99.90
1704;DHT22;849;48.780;9.216;2022-11-15T15:05:48;14.20;99.90
1704;DHT22;849;48.780;9.216;2022-11-15T15:08:13;14.20;99.90
1704;DHT22;849;48.780;9.216;2022-11-15T15:10:42;14.10;99.90
1704;DHT22;849;48.780;9.216;2022-11-15T15:13:21;14.30;99.90
1704;DHT22;849;48.780;9.216;2022-11-15T15:15:48;14.20;99.90
1704;DHT22;849;48.780;9.216;2022-11-15T15:18:14;14.20;99.90
1704;DHT22;849;48.780;9.216;2022-11-15T15:20:43;14.40;99.90
1704;DHT22;849;48.780;9.216;2022-11-15T15:23:16;14.30;99.90
1704;DHT22;849;48.780;9.216;2022-11-15T15:25:42;14.30;99.90
1704;DHT22;849;48.780;9.216;2022-11-15T15:28:08;14.40;99.90
1704;DHT22;849;48.780;9.216;2022-11-15T15:30:34;14.30;99.90
1704;DHT22;849;48.780;9.216;2022-11-15T15:33:00;14.30;99.90
1704;DHT22;849;48.780;9.216;2022-11-15T15:35:29;14.40;99.90
1704;DHT22;849;48.780;9.216;2022-11-15T15:37:56;14.40;99.90
1704;DHT22;849;48.780;9.216;2022-11-15T15:40:23;14.30;99.90
1704;DHT22;849;48.780;9.216;2022-11-15T15:42:50;14.30;99.90
1704;DHT22;849;48.780;9.216;2022-11-15T15:45:16;14.40;99.90
1704;DHT22;849;48.780;9.216;2022-11-15T15:47:43;14.50;99.90
1704;DHT22;849;48.780;9.216;2022-11-15T15:52:43;14.40;99.90
1704;DHT22;849;48.780;9.216;2022-11-15T15:55:09;14.40;99.90
1704;DHT22;849;48.780;9.216;2022-11-15T15:57:35;14.50;99.90
1704;DHT22;849;48.780;9.216;2022-11-15T16:00:02;14.60;99.90
1704;DHT22;849;48.780;9.216;2022-11-15T16:02:28;14.60;99.90
1704;DHT22;849;48.780;9.216;2022-11-15T16:04:54;14.40;99.90
1704;DHT22;849;48.780;9.216;2022-11-15T16:07:22;14.50;99.90
1704;DHT22;849;48.780;9.216;2022-11-15T16:09:49;14.70;99.90
1704;DHT22;849;48.780;9.216;2022-11-15T16:12:29;14.70;99.90
1704;DHT22;849;48.780;9.216;2022-11-15T16:14:55;14.50;99.90
1704;DHT22;849;48.780;9.216;2022-11-15T16:17:23;14.70;99.90
1704;DHT22;849;48.780;9.216;2022-11-15T16:19:50;14.40;99.90
1704;DHT22;849;48.780;9.216;2022-11-15T16:22:15;14.30;99.90
1704;DHT22;849;48.780;9.216;2022-11-15T16:24:41;14.30;99.90
1704;DHT22;849;48.780;9.216;2022-11-15T16:27:25;14.30;99.90
1704;DHT22;849;48.780;9.216;2022-11-15T16:29:50;14.10;99.90
1704;DHT22;849;48.780;9.216;2022-11-15T16:32:16;14.30;99.90
1704;DHT22;849;48.780;9.216;2022-11-15T16:34:42;14.20;99.90
1704;DHT22;849;48.780;9.216;2022-11-15T16:37:25;14.40;99.90
1704;DHT22;849;48.780;9.216;2022-11-15T16:39:51;14.50;99.90
1704;DHT22;849;48.780;9.216;2022-11-15T16:42:17;14.50;99.90
1704;DHT22;849;48.780;9.216;2022-11-15T16:44:42;14.40;99.90
1704;DHT22;849;48.780;9.216;2022-11-15T16:47:16;14.20;99.90
1704;DHT22;849;48.780;9.216;2022-11-15T16:49:43;14.00;99.90
1704;DHT22;849;48.780;9.216;2022-11-15T16:52:09;14.30;99.90
1704;DHT22;849;48.780;9.216;2022-11-15T16:54:35;14.40;99.90
1704;DHT22;849;48.780;9.216;2022-11-15T16:57:01;14.30;99.90
1704;DHT22;849;48.780;9.216;2022-11-15T16:59:27;14.40;99.90
1704;DHT22;849;48.780;9.216;2022-11-15T17:01:53;14.20;99.90
1704;DHT22;849;48.780;9.216;2022-11-15T17:04:19;14.30;99.90
1704;DHT22;849;48.780;9.216;2022-11-15T17:06:49;14.20;99.90
1704;DHT22;849;48.780;9.216;2022-11-15T17:09:22;14.40;99.90
1704;DHT22;849;48.780;9.216;2022-11-15T17:11:51;14.40;99.90
1704;DHT22;849;48.780;9.216;2022-11-15T17:14:17;14.40;99.90
1704;DHT22;849;48.780;9.216;2022-11-15T17:16:45;14.40;99.90
1704;DHT22;849;48.780;9.216;2022-11-15T17:19:15;14.40;99.90
1704;DHT22;849;48.780;9.216;2022-11-15T17:21:42;14.50;99.90
1704;DHT22;849;48.780;9.216;2022-11-15T17:24:09;14.50;99.90
1704;DHT22;849;48.780;9.216;2022-11-15T17:26:35;14.50;99.90
1704;DHT22;849;48.780;9.216;2022-11-15T17:29:01;14.60;99.90
1704;DHT22;849;48.780;9.216;2022-11-15T17:31:29;14.60;99.90
1704;DHT22;849;48.780;9.216;2022-11-15T17:33:59;14.60;99.90
1704;DHT22;849;48.780;9.216;2022-11-15T17:36:25;14.60;99.90
1704;DHT22;849;48.780;9.216;2022-11-15T17:38:50;14.50;99.90
1704;DHT22;849;48.780;9.216;2022-11-15T17:41:20;14.30;99.90
1704;DHT22;849;48.780;9.216;2022-11-15T17:43:46;14.30;99.90
1704;DHT22;849;48.780;9.216;2022-11-15T17:46:17;14.30;99.90
1704;DHT22;849;48.780;9.216;2022-11-15T17:48:46;14.50;99.90
1704;DHT22;849;48.780;9.216;2022-11-15T17:51:15;14.60;99.90
1704;DHT22;849;48.780;9.216;2022-11-15T17:53:44;14.70;99.90
1704;DHT22;849;48.780;9.216;2022-11-15T17:56:20;14.70;99.90
1704;DHT22;849;48.780;9.216;2022-11-15T17:58:54;14.70;99.90
1704;DHT22;849;48.780;9.216;2022-11-15T18:01:31;14.50;99.90
1704;DHT22;849;48.780;9.216;2022-11-15T18:03:58;14.40;99.90
1704;DHT22;849;48.780;9.216;2022-11-15T18:06:26;14.30;99.90
1704;DHT22;849;48.780;9.216;2022-11-15T18:08:53;14.80;99.90
1704;DHT22;849;48.780;9.216;2022-11-15T18:11:32;14.40;99.90
1704;DHT22;849;48.780;9.216;2022-11-15T18:14:05;14.50;99.90
1704;DHT22;849;48.780;9.216;2022-11-15T18:16:34;14.30;99.90
1704;DHT22;849;48.780;9.216;2022-11-15T18:19:01;14.60;99.90
1704;DHT22;849;48.780;9.216;2022-11-15T18:21:41;14.60;99.90
1704;DHT22;849;48.780;9.216;2022-11-15T18:24:44;14.40;99.90
1704;DHT22;849;48.780;9.216;2022-11-15T18:27:14;14.50;99.90
1704;DHT22;849;48.780;9.216;2022-11-15T18:29:40;14.40;99.90
1704;DHT22;849;48.780;9.216;2022-11-15T18:32:05;14.50;99.90
1704;DHT22;849;48.780;9.216;2022-11-15T18:34:37;14.50;99.90
1704;DHT22;849;48.780;9.216;2022-11-15T18:37:02;14.50;99.90